This is the latest recevied weather packets stored in our database for station/object OH1KK. If no packets are shown the sender has not sent any weather packets the latest 10 day(s).
| Time | Temp. | Humidity | Pressure | Rain* | Wind** | Luminosity | Snow |
|---|---|---|---|---|---|---|---|
| 1777708152 | 14.44° C | 51% | 997.2 hPa | 0 mm | - | - | - |
| 1777707297 | 13.89° C | 51% | 996.9 hPa | 0 mm | - | - | - |
| 1777706382 | 14.44° C | 50% | 997.3 hPa | 0 mm | - | - | - |
| 1777705470 | 14.44° C | 50% | 997.3 hPa | 0 mm | - | - | - |
| 1777702784 | 11.11° C | 58% | 997.8 hPa | 0 mm | - | - | - |
| 1777700953 | 10° C | 61% | 998.2 hPa | 0 mm | - | - | - |
| 1777700099 | 8.89° C | 66% | 998.4 hPa | 0 mm | - | - | - |
| 1777699184 | 8.33° C | 69% | 998.5 hPa | 0 mm | - | - | - |
| 1777698269 | 8.33° C | 67% | 998.9 hPa | 0 mm | - | - | - |
| 1777697355 | 7.22° C | 70% | 999.2 hPa | 0 mm | - | - | - |
| 1777695590 | 5° C | 78% | 999.4 hPa | 0 mm | - | - | - |
| 1777694671 | 5° C | 77% | 999.7 hPa | 0 mm | - | - | - |
| 1777693755 | 4.44° C | 79% | 1000.3 hPa | 0 mm | - | - | - |
| 1777691986 | 3.33° C | 82% | 1000.6 hPa | 0 mm | - | - | - |
| 1777691071 | 2.78° C | 82% | 1001 hPa | 0 mm | - | - | - |
| 1777690156 | 2.78° C | 82% | 1000.9 hPa | 0 mm | - | - | - |
| 1777689241 | 3.33° C | 81% | 1001.4 hPa | 0 mm | - | - | - |
| 1777670392 | 5° C | 70% | 1004.1 hPa | 0 mm | - | - | - |
| 1777669477 | 6.11° C | 67% | 1004.6 hPa | 0 mm | - | - | - |
| 1777663192 | 11.67° C | 49% | 1005.1 hPa | 0 mm | - | - | - |
| 1777655995 | 15° C | 44% | 1005.5 hPa | 0 mm | - | - | - |
| 1777654165 | 15° C | 44% | 1005.5 hPa | 0 mm | - | - | - |
| 1777651480 | 16.67° C | 42% | 1005.7 hPa | 0 mm | - | - | - |
| 1777649650 | 16.67° C | 41% | 1005.9 hPa | 0 mm | - | - | - |
| 1777648796 | 16.67° C | 41% | 1006 hPa | 0 mm | - | - | - |
* Rain latest hour (hover to see other rain measurements)
** Current wind speed in m/s (hover to see current wind gust speed)